createdAt,value
2022-10-01T00:00:26.171Z,68.80
2022-10-01T00:02:53.673Z,69.09
2022-10-01T00:05:21.039Z,69.14
2022-10-01T00:07:47.839Z,68.97
2022-10-01T00:10:15.762Z,68.68
2022-10-01T00:12:48.796Z,68.90
2022-10-01T00:15:16.535Z,68.95
2022-10-01T00:17:43.293Z,68.87
2022-10-01T00:20:14.225Z,68.87
2022-10-01T00:22:41.175Z,68.52
2022-10-01T00:25:07.639Z,68.50
2022-10-01T00:27:34.022Z,68.42
2022-10-01T00:30:00.391Z,68.84
2022-10-01T00:32:26.697Z,69.00
2022-10-01T00:34:53.005Z,68.29
2022-10-01T00:37:19.357Z,67.80
2022-10-01T00:39:45.657Z,67.94
2022-10-01T00:42:23.567Z,67.98
2022-10-01T00:44:50.576Z,67.71
2022-10-01T00:47:36.735Z,67.96
2022-10-01T00:50:05.641Z,67.94
2022-10-01T00:52:34.072Z,68.12
2022-10-01T00:55:15.034Z,67.73
2022-10-01T00:57:43.545Z,67.26
2022-10-01T01:00:11.298Z,67.13
2022-10-01T01:02:37.747Z,67.76
2022-10-01T01:05:04.608Z,67.63
2022-10-01T01:07:32.979Z,67.36
2022-10-01T01:10:01.702Z,67.54
2022-10-01T01:12:55.911Z,67.31
2022-10-01T01:15:41.345Z,67.67
2022-10-01T01:18:22.651Z,67.76
2022-10-01T01:20:48.916Z,67.85
2022-10-01T01:23:15.174Z,67.80
2022-10-01T01:26:19.449Z,67.46
2022-10-01T01:28:57.033Z,67.63
2022-10-01T01:31:29.940Z,67.64
2022-10-01T01:33:58.804Z,67.74
2022-10-01T01:36:32.409Z,68.02
2022-10-01T01:39:04.199Z,68.19
2022-10-01T01:41:37.350Z,68.22
2022-10-01T01:44:08.501Z,67.88
2022-10-01T01:46:41.478Z,68.17
2022-10-01T01:49:07.932Z,68.08
2022-10-01T01:51:43.404Z,67.98
2022-10-01T01:54:09.888Z,68.57
2022-10-01T01:56:36.681Z,67.50
2022-10-01T01:59:03.711Z,66.86
2022-10-01T02:01:46.121Z,66.97
2022-10-01T02:04:24.422Z,67.16
2022-10-01T02:07:18.715Z,66.88
2022-10-01T02:09:55.363Z,67.37
2022-10-01T02:13:03.266Z,66.88
2022-10-01T02:15:52.913Z,67.49
2022-10-01T02:18:34.003Z,67.62
2022-10-01T02:21:19.067Z,67.09
2022-10-01T02:23:56.909Z,67.99
2022-10-01T02:26:24.693Z,68.21
2022-10-01T02:28:55.157Z,67.97
2022-10-01T02:31:23.738Z,68.17
2022-10-01T02:33:53.375Z,68.26
2022-10-01T02:36:21.694Z,68.83
2022-10-01T02:38:49.018Z,70.04
2022-10-01T02:41:20.530Z,71.47
2022-10-01T02:44:01.199Z,73.05
2022-10-01T02:46:33.499Z,74.82
2022-10-01T02:49:00.044Z,75.92
2022-10-01T02:52:01.892Z,78.17
2022-10-01T02:54:34.638Z,79.29
2022-10-01T02:57:00.968Z,80.65
2022-10-01T02:59:27.335Z,81.97
2022-10-01T03:01:54.055Z,82.92
2022-10-01T03:04:20.491Z,83.70
2022-10-01T03:06:46.837Z,84.64
2022-10-01T03:09:13.424Z,85.26
2022-10-01T03:11:39.827Z,86.05
2022-10-01T03:14:06.163Z,87.04
2022-10-01T03:16:33.172Z,87.78
2022-10-01T03:18:59.463Z,88.42
2022-10-01T03:21:25.804Z,88.09
2022-10-01T03:23:52.153Z,89.09
2022-10-01T03:26:18.466Z,88.96
2022-10-01T03:28:44.761Z,89.09
2022-10-01T03:31:11.579Z,89.64
2022-10-01T03:33:37.920Z,89.75
2022-10-01T03:36:04.858Z,90.00
2022-10-01T03:38:31.589Z,89.91
2022-10-01T03:40:57.934Z,90.15
2022-10-01T03:43:24.248Z,90.33
2022-10-01T03:45:50.615Z,90.49
2022-10-01T03:48:16.979Z,90.88
2022-10-01T03:50:43.291Z,91.21
2022-10-01T03:53:09.628Z,91.73
2022-10-01T03:55:35.938Z,91.82
2022-10-01T03:58:02.243Z,91.83
2022-10-01T04:00:28.546Z,92.01
2022-10-01T04:02:54.918Z,92.26
2022-10-01T04:05:21.263Z,92.45
2022-10-01T04:07:47.587Z,93.00
2022-10-01T04:10:14.026Z,93.07
2022-10-01T04:12:40.339Z,93.27
2022-10-01T04:15:07.099Z,92.92
2022-10-01T04:17:33.408Z,92.58
2022-10-01T04:19:59.818Z,92.67
2022-10-01T04:22:26.159Z,92.83
2022-10-01T04:24:52.462Z,92.96
2022-10-01T04:27:18.770Z,92.57
2022-10-01T04:29:45.084Z,92.75
2022-10-01T04:32:11.467Z,93.08
2022-10-01T04:34:37.789Z,93.61
2022-10-01T04:37:04.150Z,93.23
2022-10-01T04:39:30.443Z,93.20
2022-10-01T04:41:56.763Z,93.28
2022-10-01T04:44:23.206Z,93.00
2022-10-01T04:46:49.538Z,93.38
2022-10-01T04:49:15.954Z,93.50
2022-10-01T04:51:42.250Z,93.48
2022-10-01T04:54:08.565Z,93.62
2022-10-01T04:56:34.867Z,93.90
2022-10-01T04:59:01.251Z,94.40
2022-10-01T05:01:27.656Z,94.04
2022-10-01T05:03:53.996Z,94.43
2022-10-01T05:06:20.290Z,94.74
2022-10-01T05:08:46.624Z,94.67
2022-10-01T05:11:12.938Z,94.72
2022-10-01T05:13:39.331Z,94.56
2022-10-01T05:16:05.815Z,94.80
2022-10-01T05:18:32.177Z,94.85
2022-10-01T05:20:58.498Z,94.93
2022-10-01T05:23:24.872Z,94.77
2022-10-01T05:25:51.165Z,94.96
2022-10-01T05:28:22.194Z,95.23
2022-10-01T05:30:49.242Z,95.02
2022-10-01T05:33:15.604Z,95.14
2022-10-01T05:35:42.236Z,95.19
2022-10-01T05:38:08.634Z,95.24
2022-10-01T05:40:34.963Z,95.42
2022-10-01T05:43:01.630Z,95.67
2022-10-01T05:45:29.776Z,95.53
2022-10-01T05:47:57.902Z,95.09
2022-10-01T05:50:24.483Z,95.35
2022-10-01T05:52:51.896Z,95.97
2022-10-01T05:55:18.524Z,96.08
2022-10-01T05:57:45.082Z,96.39
2022-10-01T06:00:11.963Z,96.46
2022-10-01T06:02:38.765Z,96.38
2022-10-01T06:05:05.955Z,96.42
2022-10-01T06:07:32.419Z,96.52
2022-10-01T06:09:58.724Z,96.55
2022-10-01T06:12:25.670Z,96.95
2022-10-01T06:14:51.991Z,96.87
2022-10-01T06:17:18.284Z,96.90
2022-10-01T06:19:44.614Z,97.00
2022-10-01T06:22:10.926Z,97.21
2022-10-01T06:24:37.230Z,97.41
2022-10-01T06:27:03.867Z,97.37
2022-10-01T06:29:30.173Z,97.63
2022-10-01T06:32:08.754Z,96.94
2022-10-01T06:34:35.523Z,97.11
2022-10-01T06:37:01.838Z,97.15
2022-10-01T06:39:28.143Z,97.07
2022-10-01T06:41:54.485Z,96.81
2022-10-01T06:44:26.313Z,97.20
2022-10-01T06:46:52.650Z,97.11
2022-10-01T06:49:19.188Z,96.93
2022-10-01T06:51:48.597Z,96.58
2022-10-01T06:54:14.911Z,96.85
2022-10-01T06:56:41.234Z,96.97
2022-10-01T06:59:07.872Z,96.51
2022-10-01T07:01:34.600Z,96.17
2022-10-01T07:04:01.449Z,95.89
2022-10-01T07:06:27.863Z,95.98
2022-10-01T07:08:54.287Z,95.73
2022-10-01T07:11:20.637Z,95.90
2022-10-01T07:13:49.971Z,95.81
2022-10-01T07:16:18.737Z,95.21
2022-10-01T07:18:45.101Z,95.29
2022-10-01T07:21:11.501Z,95.15
2022-10-01T07:23:37.835Z,95.34
2022-10-01T07:26:06.260Z,95.77
2022-10-01T07:28:32.555Z,95.38
2022-10-01T07:31:01.892Z,95.41
2022-10-01T07:33:28.508Z,95.76
2022-10-01T07:35:55.009Z,95.77
2022-10-01T07:38:21.744Z,95.40
2022-10-01T07:40:52.343Z,95.29
2022-10-01T07:43:18.683Z,95.32
2022-10-01T07:45:45.539Z,95.08
2022-10-01T07:48:11.883Z,95.56
2022-10-01T07:50:38.203Z,95.68
2022-10-01T07:53:04.492Z,95.80
2022-10-01T07:55:30.833Z,95.81
2022-10-01T07:57:58.621Z,95.70
2022-10-01T08:00:26.364Z,95.98
2022-10-01T08:02:54.640Z,96.44
2022-10-01T08:05:23.916Z,96.21
2022-10-01T08:07:50.402Z,96.47
2022-10-01T08:10:19.423Z,96.15
2022-10-01T08:12:46.145Z,96.24
2022-10-01T08:15:15.915Z,95.86
2022-10-01T08:17:43.250Z,96.04
2022-10-01T08:20:11.830Z,96.27
2022-10-01T08:22:41.817Z,95.90
2022-10-01T08:25:09.387Z,95.62
2022-10-01T08:27:35.892Z,95.39
2022-10-01T08:30:02.233Z,94.86
2022-10-01T08:32:28.607Z,94.54
2022-10-01T08:34:56.748Z,93.93
2022-10-01T08:37:29.423Z,93.37
2022-10-01T08:39:56.480Z,92.67
2022-10-01T08:42:47.339Z,92.55
2022-10-01T08:45:45.821Z,92.73
2022-10-01T08:48:28.029Z,92.65
2022-10-01T08:50:59.030Z,91.94
2022-10-01T08:53:40.325Z,91.60
2022-10-01T08:56:21.612Z,91.77
2022-10-01T08:58:56.562Z,90.90
2022-10-01T09:01:22.924Z,89.70
2022-10-01T09:03:49.680Z,89.28
2022-10-01T09:06:24.201Z,88.55
2022-10-01T09:09:02.560Z,89.42
2022-10-01T09:11:32.154Z,89.49
2022-10-01T09:14:04.789Z,89.45
2022-10-01T09:16:42.063Z,88.60
2022-10-01T09:19:48.040Z,89.75
2022-10-01T09:22:31.131Z,90.35
2022-10-01T09:25:11.938Z,90.61
2022-10-01T09:27:38.658Z,90.50
2022-10-01T09:30:12.177Z,90.00
2022-10-01T09:32:54.911Z,90.04
2022-10-01T09:35:32.112Z,89.82
2022-10-01T09:38:09.890Z,89.21
2022-10-01T09:40:50.484Z,89.04
2022-10-01T09:43:16.955Z,88.45
2022-10-01T09:45:43.348Z,88.31
2022-10-01T09:48:39.001Z,88.27
2022-10-01T09:51:14.233Z,88.55
2022-10-01T09:53:44.473Z,87.95
2022-10-01T09:56:21.586Z,87.94
2022-10-01T09:58:53.578Z,88.61
2022-10-01T10:01:31.420Z,88.87
2022-10-01T10:03:58.057Z,89.08
2022-10-01T10:06:28.396Z,88.82
2022-10-01T10:08:57.191Z,88.26
2022-10-01T10:11:31.945Z,88.21
2022-10-01T10:14:01.590Z,87.57
2022-10-01T10:16:44.180Z,86.84
2022-10-01T10:19:47.664Z,87.14
2022-10-01T10:22:22.546Z,86.30
2022-10-01T10:24:48.823Z,85.71
2022-10-01T10:27:25.532Z,84.02
2022-10-01T10:30:21.242Z,82.67
2022-10-01T10:32:47.798Z,81.32
2022-10-01T10:35:18.384Z,81.79
2022-10-01T10:37:56.450Z,81.04
2022-10-01T10:40:29.334Z,81.51
2022-10-01T10:42:58.509Z,79.91
2022-10-01T10:45:35.527Z,80.28
2022-10-01T10:48:05.064Z,79.75
2022-10-01T10:50:35.380Z,80.33
2022-10-01T10:53:21.840Z,79.83
2022-10-01T10:56:00.132Z,77.44
2022-10-01T10:58:29.141Z,76.79
2022-10-01T11:00:58.869Z,77.99
2022-10-01T11:03:29.384Z,75.01
2022-10-01T11:06:03.461Z,74.24
2022-10-01T11:08:30.089Z,73.66
2022-10-01T11:11:08.986Z,75.60
2022-10-01T11:14:04.795Z,73.80
2022-10-01T11:16:59.056Z,75.97
2022-10-01T11:19:37.577Z,76.12
2022-10-01T11:22:19.081Z,75.20
2022-10-01T11:25:05.597Z,75.03
2022-10-01T11:27:53.589Z,76.80
2022-10-01T11:30:23.977Z,76.47
2022-10-01T11:33:13.509Z,76.09
2022-10-01T11:35:58.403Z,77.57
2022-10-01T11:38:33.013Z,77.22
2022-10-01T11:41:26.302Z,74.86
2022-10-01T11:44:01.666Z,75.08
2022-10-01T11:46:41.683Z,75.35
2022-10-01T11:49:24.651Z,75.76
2022-10-01T11:52:06.664Z,75.00
2022-10-01T11:54:35.977Z,73.46
2022-10-01T11:57:04.798Z,73.72
2022-10-01T11:59:38.891Z,71.91
2022-10-01T12:02:24.184Z,71.55
2022-10-01T12:04:58.388Z,71.78
2022-10-01T12:08:02.267Z,73.62
2022-10-01T12:10:48.081Z,77.24
2022-10-01T12:13:45.395Z,79.42
2022-10-01T12:16:20.711Z,80.62
2022-10-01T12:18:54.532Z,81.23
2022-10-01T12:21:26.418Z,78.74
2022-10-01T12:24:03.230Z,76.61
2022-10-01T12:26:32.870Z,74.95
2022-10-01T12:29:08.623Z,74.93
2022-10-01T12:32:02.730Z,77.00
2022-10-01T12:34:38.027Z,77.04
2022-10-01T12:37:19.597Z,77.46
2022-10-01T12:40:04.746Z,79.46
2022-10-01T12:42:43.323Z,80.06
2022-10-01T12:45:40.064Z,82.76
2022-10-01T12:48:15.816Z,81.07
2022-10-01T12:51:15.340Z,81.55
2022-10-01T12:53:52.981Z,80.90
2022-10-01T12:56:52.546Z,80.68
2022-10-01T12:59:30.364Z,78.32
2022-10-01T13:02:21.171Z,77.42
2022-10-01T13:05:16.293Z,76.04
2022-10-01T13:08:09.942Z,74.88
2022-10-01T13:11:00.778Z,72.49
2022-10-01T13:13:29.724Z,72.25
2022-10-01T13:16:06.198Z,71.09
2022-10-01T13:19:02.883Z,72.63
2022-10-01T13:21:29.152Z,71.74
2022-10-01T13:24:11.451Z,71.34
2022-10-01T13:26:50.537Z,70.03
2022-10-01T13:29:35.421Z,70.13
2022-10-01T13:32:04.601Z,69.68
2022-10-01T13:34:37.918Z,70.02
2022-10-01T13:37:10.222Z,71.93
2022-10-01T13:39:39.538Z,71.70
2022-10-01T13:42:05.968Z,81.83
2022-10-01T13:44:35.945Z,87.63
2022-10-01T13:47:06.158Z,90.75
2022-10-01T13:49:33.728Z,91.35
2022-10-01T13:52:00.876Z,92.40
2022-10-01T13:54:39.608Z,94.26
2022-10-01T13:57:09.379Z,94.78
2022-10-01T13:59:37.552Z,96.22
2022-10-01T14:02:28.719Z,96.87
2022-10-01T14:04:57.325Z,96.93
2022-10-01T14:07:33.655Z,96.83
2022-10-01T14:10:01.265Z,97.55
2022-10-01T14:12:36.130Z,97.32
2022-10-01T14:15:13.494Z,97.11
2022-10-01T14:17:41.571Z,97.10
2022-10-01T14:20:08.784Z,97.35
2022-10-01T14:23:11.585Z,97.19
2022-10-01T14:25:55.371Z,97.32
2022-10-01T14:28:32.891Z,96.08
2022-10-01T14:31:05.447Z,95.37
2022-10-01T14:34:05.793Z,95.46
2022-10-01T14:36:35.513Z,95.87
2022-10-01T14:39:13.135Z,96.34
2022-10-01T14:41:39.489Z,97.14
2022-10-01T14:44:21.106Z,97.62
2022-10-01T14:46:51.971Z,97.99
2022-10-01T14:49:26.192Z,98.17
2022-10-01T14:51:58.355Z,98.52
2022-10-01T14:54:25.380Z,98.29
2022-10-01T14:56:52.849Z,97.83
2022-10-01T14:59:37.328Z,97.55
2022-10-01T15:02:17.384Z,97.60
2022-10-01T15:04:51.273Z,97.68
2022-10-01T15:07:18.289Z,98.22
2022-10-01T15:09:46.166Z,98.06
2022-10-01T15:12:14.813Z,97.83
2022-10-01T15:14:42.147Z,97.58
2022-10-01T15:17:18.096Z,97.69
2022-10-01T15:19:46.185Z,98.37
2022-10-01T15:22:13.230Z,98.18
2022-10-01T15:24:47.913Z,97.90
2022-10-01T15:27:18.423Z,96.66
2022-10-01T15:29:46.642Z,95.52
2022-10-01T15:32:16.766Z,95.62
2022-10-01T15:34:48.197Z,94.69
2022-10-01T15:37:22.093Z,93.98
2022-10-01T15:39:50.245Z,92.87
2022-10-01T15:42:23.910Z,92.27
2022-10-01T15:44:50.236Z,92.30
2022-10-01T15:47:23.668Z,91.82
2022-10-01T15:50:13.267Z,90.99
2022-10-01T15:52:55.008Z,91.07
2022-10-01T15:55:26.506Z,90.68
2022-10-01T15:58:17.857Z,90.79
2022-10-01T16:00:57.386Z,91.00
2022-10-01T16:03:30.885Z,90.50
2022-10-01T16:05:58.651Z,89.80
2022-10-01T16:08:28.917Z,90.07
2022-10-01T16:11:15.586Z,89.82
2022-10-01T16:13:47.429Z,89.53
2022-10-01T16:16:13.764Z,90.08
2022-10-01T16:18:41.512Z,90.80
2022-10-01T16:21:10.478Z,90.97
2022-10-01T16:23:39.724Z,91.65
2022-10-01T16:26:29.198Z,92.39
2022-10-01T16:28:56.327Z,92.92
2022-10-01T16:31:26.407Z,93.37
2022-10-01T16:33:52.981Z,93.94
2022-10-01T16:36:21.075Z,94.49
2022-10-01T16:38:47.956Z,94.81
2022-10-01T16:41:20.290Z,94.69
2022-10-01T16:43:46.623Z,94.87
2022-10-01T16:46:13.014Z,95.13
2022-10-01T16:48:39.384Z,95.10
2022-10-01T16:51:05.931Z,95.50
2022-10-01T16:53:32.502Z,95.78
2022-10-01T16:55:58.856Z,95.92
2022-10-01T16:58:25.259Z,96.10
2022-10-01T17:00:51.802Z,96.29
2022-10-01T17:03:21.689Z,97.03
2022-10-01T17:05:48.321Z,97.05
2022-10-01T17:08:14.690Z,96.73
2022-10-01T17:10:46.381Z,96.32
2022-10-01T17:13:14.059Z,94.65
2022-10-01T17:15:41.139Z,93.81
2022-10-01T17:18:08.019Z,92.58
2022-10-01T17:20:34.421Z,92.36
2022-10-01T17:23:00.728Z,92.02
2022-10-01T17:25:30.853Z,91.61
2022-10-01T17:27:57.973Z,91.53
2022-10-01T17:30:24.410Z,91.12
2022-10-01T17:32:50.766Z,90.26
2022-10-01T17:35:17.114Z,89.66
2022-10-01T17:37:43.473Z,89.26
2022-10-01T17:40:10.587Z,88.72
2022-10-01T17:42:37.053Z,88.64
2022-10-01T17:45:06.724Z,88.73
2022-10-01T17:47:33.081Z,89.59
2022-10-01T17:49:59.643Z,90.68
2022-10-01T17:52:25.994Z,91.16
2022-10-01T17:54:52.406Z,91.25
2022-10-01T17:57:18.730Z,92.02
2022-10-01T17:59:45.045Z,92.38
2022-10-01T18:02:36.623Z,92.97
2022-10-01T18:04:58.863Z,93.27
2022-10-01T18:07:25.283Z,93.85
2022-10-01T18:09:51.707Z,94.16
2022-10-01T18:12:18.656Z,94.60
2022-10-01T18:14:45.034Z,94.84
2022-10-01T18:17:11.411Z,95.27
2022-10-01T18:19:54.080Z,95.90
2022-10-01T18:22:21.048Z,96.34
2022-10-01T18:24:47.501Z,96.44
2022-10-01T18:27:13.987Z,96.82
2022-10-01T18:29:40.328Z,96.96
2022-10-01T18:32:14.606Z,97.07
2022-10-01T18:35:01.554Z,97.41
2022-10-01T18:37:42.584Z,98.01
2022-10-01T18:40:16.227Z,98.40
2022-10-01T18:43:00.674Z,98.69
2022-10-01T18:45:39.034Z,98.73
2022-10-01T18:48:11.236Z,98.73
2022-10-01T18:51:08.139Z,98.92
2022-10-01T18:54:07.832Z,98.97
2022-10-01T18:56:37.107Z,99.41
2022-10-01T18:59:34.827Z,99.11
2022-10-01T19:02:20.425Z,99.48
2022-10-01T19:05:01.846Z,99.41
2022-10-01T19:07:49.599Z,99.75
2022-10-01T19:10:22.055Z,99.24
2022-10-01T19:13:05.817Z,99.04
2022-10-01T19:15:50.721Z,98.78
2022-10-01T19:18:43.169Z,98.75
2022-10-01T19:21:21.325Z,98.77
2022-10-01T19:24:17.359Z,98.62
2022-10-01T19:26:52.400Z,98.64
2022-10-01T19:29:24.804Z,98.79
2022-10-01T19:32:02.137Z,98.81
2022-10-01T19:34:52.242Z,99.20
2022-10-01T19:37:39.153Z,99.16
2022-10-01T19:40:27.911Z,99.16
2022-10-01T19:43:06.910Z,99.33
2022-10-01T19:45:43.123Z,99.48
2022-10-01T19:48:26.212Z,99.31
2022-10-01T19:50:59.210Z,99.50
2022-10-01T19:53:35.214Z,99.55
2022-10-01T19:56:02.280Z,99.64
2022-10-01T19:58:28.836Z,99.23
2022-10-01T20:00:57.626Z,99.08
2022-10-01T20:03:54.320Z,98.93
2022-10-01T20:06:37.471Z,98.84
2022-10-01T20:09:27.851Z,98.92
2022-10-01T20:12:31.526Z,98.81
2022-10-01T20:15:24.854Z,98.61
2022-10-01T20:17:51.131Z,98.73
2022-10-01T20:20:26.253Z,98.70
2022-10-01T20:23:19.922Z,98.67
2022-10-01T20:26:14.038Z,98.56
2022-10-01T20:29:02.161Z,98.41
2022-10-01T20:31:34.040Z,98.00
2022-10-01T20:34:09.534Z,98.09
2022-10-01T20:36:43.825Z,97.74
2022-10-01T20:39:19.505Z,96.75
2022-10-01T20:41:49.175Z,96.56
2022-10-01T20:44:22.274Z,96.10
2022-10-01T20:46:53.264Z,96.15
2022-10-01T20:49:32.399Z,95.67
2022-10-01T20:52:30.327Z,95.53
2022-10-01T20:55:03.155Z,95.53
2022-10-01T20:57:44.706Z,95.31
2022-10-01T21:00:21.879Z,95.14
2022-10-01T21:02:56.089Z,95.51
2022-10-01T21:05:53.502Z,95.62
2022-10-01T21:08:25.910Z,95.71
2022-10-01T21:10:54.335Z,96.05
2022-10-01T21:13:29.725Z,96.35
2022-10-01T21:16:14.678Z,96.67
2022-10-01T21:19:06.756Z,96.86
2022-10-01T21:21:55.278Z,97.66
2022-10-01T21:24:56.289Z,98.17
2022-10-01T21:28:00.789Z,98.44
2022-10-01T21:30:36.793Z,98.60
2022-10-01T21:33:14.061Z,98.45
2022-10-01T21:35:52.518Z,98.05
2022-10-01T21:38:30.870Z,98.07
2022-10-01T21:41:11.899Z,97.51
2022-10-01T21:44:11.210Z,97.23
2022-10-01T21:46:52.950Z,96.67
2022-10-01T21:49:44.008Z,96.58
2022-10-01T21:52:46.241Z,96.47
2022-10-01T21:55:24.969Z,95.04
2022-10-01T21:58:22.294Z,93.87
2022-10-01T22:01:08.843Z,94.38
2022-10-01T22:03:43.320Z,94.30
2022-10-01T22:06:17.696Z,93.34
2022-10-01T22:09:07.179Z,93.72
2022-10-01T22:11:39.150Z,94.53
2022-10-01T22:14:15.238Z,95.01
2022-10-01T22:16:49.961Z,95.00
2022-10-01T22:19:25.715Z,95.11
2022-10-01T22:21:59.303Z,95.38
2022-10-01T22:24:32.086Z,95.85
2022-10-01T22:27:04.163Z,95.75
2022-10-01T22:29:32.633Z,95.88
2022-10-01T22:32:03.216Z,95.97
2022-10-01T22:34:35.824Z,95.77
2022-10-01T22:37:08.017Z,95.74
2022-10-01T22:39:39.474Z,96.00
2022-10-01T22:42:32.255Z,95.73
2022-10-01T22:45:06.038Z,95.99
2022-10-01T22:47:32.278Z,96.16
2022-10-01T22:50:16.527Z,96.65
2022-10-01T22:52:59.110Z,96.87
2022-10-01T22:55:30.920Z,97.13
2022-10-01T22:58:05.395Z,97.10
2022-10-01T23:00:39.179Z,96.94
2022-10-01T23:03:11.416Z,97.07
2022-10-01T23:05:40.691Z,96.81
2022-10-01T23:08:19.980Z,96.62
2022-10-01T23:10:59.924Z,96.21
2022-10-01T23:13:35.342Z,96.10
2022-10-01T23:16:21.378Z,96.39
2022-10-01T23:19:38.170Z,96.38
2022-10-01T23:22:15.280Z,96.13
2022-10-01T23:25:07.906Z,96.31
2022-10-01T23:28:01.950Z,96.67
2022-10-01T23:30:52.300Z,97.08
2022-10-01T23:34:20.378Z,97.15
2022-10-01T23:36:56.246Z,97.57
2022-10-01T23:39:34.949Z,97.73
2022-10-01T23:42:11.982Z,97.45
2022-10-01T23:45:01.866Z,97.41
2022-10-01T23:47:39.865Z,97.72
2022-10-01T23:50:17.293Z,97.61
2022-10-01T23:52:51.830Z,97.48
2022-10-01T23:55:25.766Z,97.24
2022-10-01T23:57:58.601Z,97.35
